createdAt,value
2022-12-03T00:02:22.393Z,39.63
2022-12-03T00:04:49.528Z,39.87
2022-12-03T00:07:16.543Z,38.80
2022-12-03T00:09:43.418Z,39.63
2022-12-03T00:12:10.730Z,39.60
2022-12-03T00:14:42.913Z,39.33
2022-12-03T00:17:11.477Z,41.13
2022-12-03T00:19:38.159Z,41.37
2022-12-03T00:22:05.053Z,38.27
2022-12-03T00:24:31.985Z,38.23
2022-12-03T00:26:58.885Z,37.80
2022-12-03T00:29:26.145Z,40.60
2022-12-03T00:31:53.057Z,40.07
2022-12-03T00:34:21.637Z,39.00
2022-12-03T00:36:48.558Z,41.00
2022-12-03T00:39:15.481Z,39.37
2022-12-03T00:41:42.422Z,40.77
2022-12-03T00:44:11.110Z,41.87
2022-12-03T00:46:38.639Z,39.43
2022-12-03T00:49:05.625Z,41.90
2022-12-03T00:51:32.528Z,41.17
2022-12-03T00:53:59.474Z,40.77
2022-12-03T00:56:26.364Z,39.90
2022-12-03T00:58:53.252Z,43.83
2022-12-03T01:01:23.018Z,42.37
2022-12-03T01:03:50.402Z,43.27
2022-12-03T01:06:17.587Z,39.83
2022-12-03T01:08:44.527Z,39.77
2022-12-03T01:11:26.095Z,40.60
2022-12-03T01:13:53.395Z,42.33
2022-12-03T01:16:20.396Z,45.17
2022-12-03T01:18:47.448Z,44.67
2022-12-03T01:21:14.718Z,46.60
2022-12-03T01:23:41.599Z,44.73
2022-12-03T01:26:11.414Z,45.53
2022-12-03T01:28:38.315Z,48.30
2022-12-03T01:31:23.388Z,47.63
2022-12-03T01:33:50.357Z,45.93
2022-12-03T01:36:17.704Z,43.13
2022-12-03T01:38:44.623Z,42.50
2022-12-03T01:41:12.135Z,41.80
2022-12-03T01:43:39.354Z,42.93
2022-12-03T01:46:06.705Z,43.30
2022-12-03T01:48:35.246Z,43.10
2022-12-03T01:51:02.217Z,42.73
2022-12-03T01:53:29.581Z,40.50
2022-12-03T01:55:56.467Z,43.37
2022-12-03T01:58:26.949Z,40.47
2022-12-03T02:00:53.843Z,43.67
2022-12-03T02:03:23.871Z,42.90
2022-12-03T02:05:51.043Z,41.93
2022-12-03T02:08:28.052Z,40.87
2022-12-03T02:10:56.312Z,40.67
2022-12-03T02:13:23.318Z,42.03
2022-12-03T02:15:50.335Z,42.37
2022-12-03T02:18:17.297Z,41.53
2022-12-03T02:20:53.926Z,41.97
2022-12-03T02:23:29.988Z,42.10
2022-12-03T02:25:57.437Z,42.50
2022-12-03T02:28:24.624Z,41.00
2022-12-03T02:30:51.583Z,39.80
2022-12-03T02:33:18.571Z,40.40
2022-12-03T02:35:45.721Z,39.73
2022-12-03T02:38:15.817Z,40.00
2022-12-03T02:40:43.710Z,36.17
2022-12-03T02:43:14.237Z,38.70
2022-12-03T02:45:43.752Z,38.50
2022-12-03T02:48:13.761Z,40.70
2022-12-03T02:50:44.865Z,38.73
2022-12-03T02:53:15.037Z,41.57
2022-12-03T02:55:42.312Z,41.50
2022-12-03T02:58:10.747Z,39.17
2022-12-03T03:00:38.603Z,39.63
2022-12-03T03:03:08.558Z,40.77
2022-12-03T03:05:37.544Z,41.73
2022-12-03T03:08:04.987Z,41.53
2022-12-03T03:10:34.068Z,41.90
2022-12-03T03:13:11.150Z,41.33
2022-12-03T03:15:38.942Z,41.37
2022-12-03T03:18:05.975Z,39.80
2022-12-03T03:20:33.126Z,41.80
2022-12-03T03:23:06.414Z,41.30
2022-12-03T03:25:33.341Z,40.70
2022-12-03T03:28:00.300Z,39.80
2022-12-03T03:30:27.659Z,40.73
2022-12-03T03:32:54.578Z,42.70
2022-12-03T03:35:22.443Z,39.13
2022-12-03T03:37:49.320Z,41.93
2022-12-03T03:40:16.675Z,40.23
2022-12-03T03:42:43.750Z,38.53
2022-12-03T03:45:10.856Z,39.63
2022-12-03T03:47:38.751Z,39.77
2022-12-03T03:50:07.455Z,39.50
2022-12-03T03:52:34.665Z,40.97
2022-12-03T03:55:01.634Z,43.17
2022-12-03T03:57:28.537Z,40.60
2022-12-03T03:59:55.494Z,41.00
2022-12-03T04:02:24.515Z,41.67
2022-12-03T04:04:52.262Z,40.70
2022-12-03T04:07:19.319Z,43.23
2022-12-03T04:09:46.198Z,43.33
2022-12-03T04:12:31.160Z,41.77
2022-12-03T04:14:58.305Z,40.70
2022-12-03T04:17:25.162Z,38.47
2022-12-03T04:19:52.422Z,39.40
2022-12-03T04:22:37.794Z,41.97
2022-12-03T04:25:23.547Z,37.30
2022-12-03T04:28:08.768Z,40.93
2022-12-03T04:30:35.717Z,40.20
2022-12-03T04:33:20.886Z,41.73
2022-12-03T04:35:49.100Z,41.03
2022-12-03T04:38:16.146Z,40.17
2022-12-03T04:41:03.121Z,41.23
2022-12-03T04:43:31.238Z,41.83
2022-12-03T04:45:58.171Z,42.07
2022-12-03T04:48:25.053Z,41.20
2022-12-03T04:50:52.273Z,39.97
2022-12-03T04:53:19.222Z,40.27
2022-12-03T04:55:46.141Z,40.23
2022-12-03T04:58:15.556Z,39.70
2022-12-03T05:00:42.432Z,40.10
2022-12-03T05:03:09.346Z,39.97
2022-12-03T05:05:36.211Z,41.10
2022-12-03T05:08:03.956Z,40.03
2022-12-03T05:10:30.855Z,40.20
2022-12-03T05:12:57.739Z,42.37
2022-12-03T05:15:24.637Z,42.20
2022-12-03T05:17:51.537Z,42.03
2022-12-03T05:20:36.928Z,42.93
2022-12-03T05:23:04.185Z,43.27
2022-12-03T05:25:31.036Z,41.37
2022-12-03T05:27:57.896Z,42.63
2022-12-03T05:30:24.830Z,42.23
2022-12-03T05:32:51.781Z,43.37
2022-12-03T05:35:18.697Z,43.03
2022-12-03T05:37:45.596Z,43.10
2022-12-03T05:40:13.861Z,43.20
2022-12-03T05:42:56.415Z,42.33
2022-12-03T05:45:24.871Z,43.70
2022-12-03T05:47:51.936Z,42.37
2022-12-03T05:50:18.862Z,43.27
2022-12-03T05:52:45.867Z,43.77
2022-12-03T05:55:13.573Z,41.80
2022-12-03T05:57:40.805Z,42.47
2022-12-03T06:00:11.500Z,43.57
2022-12-03T06:02:38.496Z,42.93
2022-12-03T06:05:06.156Z,41.70
2022-12-03T06:07:33.123Z,44.87
2022-12-03T06:10:00.081Z,43.27
2022-12-03T06:12:27.379Z,41.17
2022-12-03T06:14:54.568Z,43.50
2022-12-03T06:17:21.736Z,44.23
2022-12-03T06:19:48.338Z,44.70
2022-12-03T06:22:15.235Z,42.60
2022-12-03T06:24:41.926Z,45.90
2022-12-03T06:27:09.024Z,44.87
2022-12-03T06:29:36.345Z,43.43
2022-12-03T06:32:03.558Z,45.03
2022-12-03T06:34:30.486Z,45.20
2022-12-03T06:36:57.434Z,44.90
2022-12-03T06:39:24.386Z,46.17
2022-12-03T06:41:51.288Z,45.77
2022-12-03T06:44:18.322Z,46.60
2022-12-03T06:46:45.644Z,47.07
2022-12-03T06:49:12.596Z,49.47
2022-12-03T06:51:39.503Z,44.67
2022-12-03T06:54:06.568Z,47.80
2022-12-03T06:56:37.791Z,46.40
2022-12-03T06:59:06.062Z,42.53
2022-12-03T07:01:33.086Z,45.67
2022-12-03T07:04:00.327Z,44.90
2022-12-03T07:06:27.268Z,46.63
2022-12-03T07:08:54.163Z,45.60
2022-12-03T07:11:39.186Z,46.77
2022-12-03T07:14:07.104Z,45.30
2022-12-03T07:16:35.023Z,45.20
2022-12-03T07:19:02.427Z,45.40
2022-12-03T07:21:29.355Z,44.20
2022-12-03T07:23:56.298Z,46.57
2022-12-03T07:26:23.277Z,46.03
2022-12-03T07:28:49.942Z,44.17
2022-12-03T07:31:16.982Z,44.83
2022-12-03T07:33:43.750Z,46.97
2022-12-03T07:36:11.132Z,46.17
2022-12-03T07:38:38.048Z,48.13
2022-12-03T07:41:05.015Z,48.90
2022-12-03T07:43:32.070Z,46.23
2022-12-03T07:45:58.967Z,45.43
2022-12-03T07:48:25.856Z,47.97
2022-12-03T07:50:52.822Z,48.67
2022-12-03T07:53:20.352Z,47.47
2022-12-03T07:55:47.242Z,47.73
2022-12-03T07:58:14.120Z,46.67
2022-12-03T08:00:41.220Z,45.37
2022-12-03T08:03:08.318Z,49.00
2022-12-03T08:05:35.196Z,46.27
2022-12-03T08:08:02.337Z,46.87
2022-12-03T08:10:30.077Z,47.13
2022-12-03T08:12:58.682Z,49.57
2022-12-03T08:15:30.129Z,48.73
2022-12-03T08:18:01.448Z,48.93
2022-12-03T08:20:29.723Z,48.53
2022-12-03T08:22:57.023Z,48.90
2022-12-03T08:25:25.512Z,47.57
2022-12-03T08:27:56.224Z,46.63
2022-12-03T08:30:23.276Z,48.27
2022-12-03T08:32:51.576Z,45.77
2022-12-03T08:35:22.965Z,48.00
2022-12-03T08:38:00.884Z,46.93
2022-12-03T08:40:34.440Z,45.00
2022-12-03T08:43:01.769Z,48.03
2022-12-03T08:45:43.892Z,46.60
2022-12-03T08:48:29.371Z,46.73
2022-12-03T08:50:57.606Z,46.77
2022-12-03T08:53:35.840Z,45.20
2022-12-03T08:56:04.946Z,46.50
2022-12-03T08:58:38.406Z,45.00
2022-12-03T09:01:31.699Z,47.20
2022-12-03T09:04:18.854Z,46.00
2022-12-03T09:06:45.875Z,45.43
2022-12-03T09:09:12.768Z,44.40
2022-12-03T09:11:39.767Z,45.50
2022-12-03T09:14:07.227Z,46.23
2022-12-03T09:16:34.197Z,47.07
2022-12-03T09:19:01.317Z,46.97
2022-12-03T09:21:28.241Z,46.53
2022-12-03T09:23:55.140Z,44.37
2022-12-03T09:26:21.750Z,46.50
2022-12-03T09:28:48.922Z,45.37
2022-12-03T09:31:16.689Z,45.83
2022-12-03T09:33:43.568Z,45.70
2022-12-03T09:36:10.449Z,46.17
2022-12-03T09:38:37.359Z,45.83
2022-12-03T09:41:04.427Z,44.47
2022-12-03T09:44:02.590Z,44.47
2022-12-03T09:46:21.527Z,43.53
2022-12-03T09:48:48.480Z,47.20
2022-12-03T09:51:15.423Z,43.40
2022-12-03T09:53:42.388Z,46.63
2022-12-03T09:56:16.735Z,44.73
2022-12-03T09:58:43.754Z,46.43
2022-12-03T10:01:14.133Z,45.50
2022-12-03T10:03:46.117Z,44.53
2022-12-03T10:06:16.585Z,45.23
2022-12-03T10:08:45.374Z,44.40
2022-12-03T10:11:12.324Z,46.70
2022-12-03T10:13:39.752Z,46.07
2022-12-03T10:16:09.951Z,48.40
2022-12-03T10:18:41.403Z,44.63
2022-12-03T10:21:16.714Z,45.93
2022-12-03T10:23:43.658Z,43.47
2022-12-03T10:26:10.573Z,42.40
2022-12-03T10:28:39.960Z,46.00
2022-12-03T10:31:08.715Z,45.73
2022-12-03T10:33:37.712Z,45.07
2022-12-03T10:36:17.798Z,45.13
2022-12-03T10:38:45.042Z,43.10
2022-12-03T10:41:23.283Z,44.27
2022-12-03T10:43:51.195Z,45.93
2022-12-03T10:46:19.281Z,43.10
2022-12-03T10:48:46.277Z,47.00
2022-12-03T10:51:20.283Z,44.47
2022-12-03T10:53:48.403Z,45.80
2022-12-03T10:56:20.070Z,43.57
2022-12-03T10:58:46.926Z,44.57
2022-12-03T11:01:16.408Z,45.20
2022-12-03T11:03:43.460Z,46.20
2022-12-03T11:06:14.252Z,44.87
2022-12-03T11:08:44.037Z,42.77
2022-12-03T11:11:17.762Z,41.50
2022-12-03T11:13:49.265Z,42.70
2022-12-03T11:17:06.043Z,42.80
2022-12-03T11:19:49.437Z,43.77
2022-12-03T11:22:41.235Z,42.73
2022-12-03T11:25:47.370Z,44.70
2022-12-03T11:28:38.108Z,43.90
2022-12-03T11:31:11.567Z,41.33
2022-12-03T11:33:40.112Z,41.30
2022-12-03T11:36:14.711Z,44.60
2022-12-03T11:38:52.384Z,41.83
2022-12-03T11:41:22.726Z,43.33
2022-12-03T11:44:28.915Z,43.17
2022-12-03T11:46:58.451Z,41.90
2022-12-03T11:49:37.125Z,41.97
2022-12-03T11:52:19.537Z,44.47
2022-12-03T11:54:50.387Z,42.03
2022-12-03T11:57:30.474Z,43.13
2022-12-03T12:00:19.321Z,44.60
2022-12-03T12:02:47.391Z,43.30
2022-12-03T12:05:15.764Z,41.70
2022-12-03T12:07:45.096Z,41.53
2022-12-03T12:10:12.091Z,40.83
2022-12-03T12:12:44.394Z,41.57
2022-12-03T12:15:42.761Z,41.40
2022-12-03T12:18:35.773Z,42.30
2022-12-03T12:21:39.972Z,40.97
2022-12-03T12:24:39.740Z,40.90
2022-12-03T12:27:08.618Z,41.70
2022-12-03T12:29:36.021Z,41.37
2022-12-03T12:32:12.016Z,42.83
2022-12-03T12:34:40.177Z,41.93
2022-12-03T12:37:10.832Z,43.50
2022-12-03T12:39:38.306Z,44.00
2022-12-03T12:42:21.820Z,42.57
2022-12-03T12:44:49.954Z,42.30
2022-12-03T12:47:16.748Z,40.10
2022-12-03T12:49:48.716Z,42.10
2022-12-03T12:52:18.547Z,42.67
2022-12-03T12:54:45.426Z,43.23
2022-12-03T12:57:13.788Z,39.60
2022-12-03T12:59:40.909Z,43.43
2022-12-03T13:02:41.854Z,43.77
2022-12-03T13:05:12.157Z,42.70
2022-12-03T13:07:39.727Z,45.83
2022-12-03T13:10:38.028Z,44.73
2022-12-03T13:13:26.077Z,43.80
2022-12-03T13:15:59.024Z,39.83
2022-12-03T13:18:38.636Z,44.13
2022-12-03T13:21:21.726Z,43.73
2022-12-03T13:23:48.910Z,43.03
2022-12-03T13:26:32.893Z,43.73
2022-12-03T13:29:10.664Z,42.07
2022-12-03T13:31:43.192Z,42.33
2022-12-03T13:34:15.980Z,42.40
2022-12-03T13:36:45.187Z,43.40
2022-12-03T13:39:16.515Z,44.07
2022-12-03T13:42:04.213Z,44.43
2022-12-03T13:44:32.003Z,43.07
2022-12-03T13:47:01.694Z,45.33
2022-12-03T13:49:29.554Z,43.20
2022-12-03T13:51:56.854Z,45.67
2022-12-03T13:54:27.408Z,46.77
2022-12-03T13:56:54.328Z,46.27
2022-12-03T13:59:25.950Z,45.70
2022-12-03T14:02:01.138Z,45.67
2022-12-03T14:04:28.285Z,43.87
2022-12-03T14:06:55.210Z,42.87
2022-12-03T14:09:22.527Z,48.97
2022-12-03T14:12:07.918Z,46.60
2022-12-03T14:14:34.935Z,44.13
2022-12-03T14:17:02.445Z,42.40
2022-12-03T14:19:29.351Z,40.97
2022-12-03T14:21:56.305Z,38.10
2022-12-03T14:24:23.649Z,43.87
2022-12-03T14:26:50.530Z,43.17
2022-12-03T14:29:17.450Z,44.47
2022-12-03T14:31:44.489Z,42.80
2022-12-03T14:34:11.450Z,41.20
2022-12-03T14:36:41.362Z,39.50
2022-12-03T14:39:08.260Z,39.83
2022-12-03T14:41:53.792Z,37.10
2022-12-03T14:44:22.834Z,36.20
2022-12-03T14:46:55.470Z,38.80
2022-12-03T14:49:24.665Z,43.00
2022-12-03T14:51:51.791Z,40.47
2022-12-03T14:54:19.074Z,39.07
2022-12-03T14:56:46.609Z,37.83
2022-12-03T14:59:13.688Z,38.17
2022-12-03T15:01:40.745Z,37.67
2022-12-03T15:04:08.302Z,40.33
2022-12-03T15:06:35.238Z,42.20
2022-12-03T15:09:02.285Z,42.27
2022-12-03T15:11:29.270Z,41.87
2022-12-03T15:13:57.233Z,37.07
2022-12-03T15:16:24.208Z,40.43
2022-12-03T15:18:51.202Z,38.87
2022-12-03T15:21:18.264Z,42.97
2022-12-03T15:23:45.243Z,38.70
2022-12-03T15:26:12.183Z,37.80
2022-12-03T15:28:40.038Z,39.33
2022-12-03T15:31:09.615Z,40.23
2022-12-03T15:33:36.591Z,37.40
2022-12-03T15:39:48.348Z,38.00
2022-12-03T15:42:15.588Z,39.43
2022-12-03T15:44:42.499Z,37.63
2022-12-03T15:47:09.759Z,38.70
2022-12-03T15:49:36.532Z,41.13
2022-12-03T15:52:03.879Z,38.97
2022-12-03T15:54:30.778Z,40.00
2022-12-03T15:56:57.793Z,37.33
2022-12-03T15:59:24.764Z,39.90
2022-12-03T16:01:51.816Z,41.57
2022-12-03T16:04:19.432Z,40.83
2022-12-03T16:06:46.543Z,39.03
2022-12-03T16:09:13.507Z,40.43
2022-12-03T16:11:40.419Z,41.03
2022-12-03T16:14:07.137Z,39.47
2022-12-03T16:16:34.110Z,41.60
2022-12-03T16:19:01.112Z,41.43
2022-12-03T16:21:28.720Z,40.17
2022-12-03T16:23:55.945Z,39.03
2022-12-03T16:26:22.857Z,39.33
2022-12-03T16:28:49.767Z,40.53
2022-12-03T16:31:18.279Z,40.00
2022-12-03T16:33:45.212Z,39.60
2022-12-03T16:36:12.199Z,39.07
2022-12-03T16:38:39.938Z,40.40
2022-12-03T16:41:06.886Z,40.13
2022-12-03T16:43:37.737Z,40.90
2022-12-03T16:46:20.032Z,43.17
2022-12-03T16:48:47.366Z,42.20
2022-12-03T16:51:14.251Z,40.00
2022-12-03T16:53:41.757Z,39.50
2022-12-03T16:56:08.806Z,40.33
2022-12-03T16:58:35.465Z,40.73
2022-12-03T17:01:02.513Z,41.33
2022-12-03T17:03:33.787Z,40.83
2022-12-03T17:06:01.629Z,42.27
2022-12-03T17:08:28.592Z,41.33
2022-12-03T17:10:57.421Z,41.50
2022-12-03T17:13:24.717Z,42.17
2022-12-03T17:15:52.411Z,40.20
2022-12-03T17:18:19.974Z,40.63
2022-12-03T17:20:46.876Z,40.43
2022-12-03T17:23:17.009Z,40.47
2022-12-03T17:25:44.119Z,39.60
2022-12-03T17:28:11.408Z,40.37
2022-12-03T17:30:38.347Z,39.90
2022-12-03T17:33:05.077Z,40.70
2022-12-03T17:35:31.982Z,39.13
2022-12-03T17:37:58.908Z,41.77
2022-12-03T17:40:34.888Z,42.60
2022-12-03T17:43:01.741Z,42.57
2022-12-03T17:45:28.997Z,40.20
2022-12-03T17:47:55.925Z,42.17
2022-12-03T17:50:22.862Z,38.17
2022-12-03T21:02:07.671Z,45.57
2022-12-03T21:04:36.062Z,49.33
2022-12-03T21:07:02.973Z,50.33
2022-12-03T21:09:29.865Z,49.37
2022-12-03T21:11:56.927Z,49.33
2022-12-03T21:14:23.610Z,51.90
2022-12-03T21:17:08.764Z,50.23
2022-12-03T21:19:37.028Z,49.13
2022-12-03T21:22:03.893Z,51.37
2022-12-03T21:24:30.566Z,50.03
2022-12-03T21:26:57.204Z,49.33
2022-12-03T21:29:24.293Z,51.27
2022-12-03T21:31:51.232Z,49.97
2022-12-03T21:34:18.219Z,50.00
2022-12-03T21:36:45.521Z,49.37
2022-12-03T21:39:12.145Z,51.90
2022-12-03T21:41:39.082Z,47.90
2022-12-03T21:44:05.959Z,50.53
2022-12-03T21:47:10.838Z,51.87
2022-12-03T21:49:19.763Z,50.00
2022-12-03T21:51:47.109Z,52.20
2022-12-03T21:54:14.092Z,52.17
2022-12-03T21:56:41.054Z,51.57
2022-12-03T21:59:07.983Z,53.50
2022-12-03T22:01:34.970Z,53.60
2022-12-03T22:04:01.903Z,55.63
2022-12-03T22:06:28.833Z,55.57
2022-12-03T22:08:56.287Z,52.73
2022-12-03T22:11:23.740Z,53.27
2022-12-03T22:13:50.955Z,53.33
2022-12-03T22:16:20.067Z,53.43
2022-12-03T22:18:47.177Z,53.23
2022-12-03T22:21:16.143Z,52.70
2022-12-03T22:23:43.226Z,51.30
2022-12-03T22:26:13.690Z,53.23
2022-12-03T22:28:43.523Z,53.53
2022-12-03T22:31:16.530Z,55.80
2022-12-03T22:33:49.376Z,53.27
2022-12-03T22:36:21.991Z,52.47
2022-12-03T22:38:52.926Z,54.30
2022-12-03T22:41:27.725Z,55.30
2022-12-03T22:44:06.495Z,51.93
2022-12-03T22:46:43.520Z,51.43
2022-12-03T22:49:16.937Z,51.47
2022-12-03T22:51:55.058Z,53.63
2022-12-03T22:54:27.224Z,50.90
2022-12-03T22:56:54.633Z,52.97
2022-12-03T22:59:26.642Z,52.70
2022-12-03T23:02:01.659Z,54.57
2022-12-03T23:04:29.014Z,55.97
2022-12-03T23:07:09.768Z,54.07
2022-12-03T23:09:36.896Z,50.50
2022-12-03T23:12:04.677Z,57.03
2022-12-03T23:14:31.582Z,53.93
2022-12-03T23:16:58.488Z,57.17
2022-12-03T23:19:25.774Z,55.17
2022-12-03T23:21:52.760Z,53.80
2022-12-03T23:24:19.660Z,55.00
2022-12-03T23:26:46.869Z,52.73
2022-12-03T23:29:14.302Z,54.67
2022-12-03T23:31:40.984Z,55.07
2022-12-03T23:34:08.065Z,53.70
2022-12-03T23:36:35.104Z,53.77
2022-12-03T23:39:02.118Z,54.37
2022-12-03T23:41:29.052Z,54.20
2022-12-03T23:43:56.477Z,56.03
2022-12-03T23:46:27.648Z,55.90
2022-12-03T23:48:54.849Z,54.87
2022-12-03T23:51:23.363Z,54.77
2022-12-03T23:53:50.408Z,57.13
2022-12-03T23:56:21.835Z,55.30
2022-12-03T23:58:48.831Z,55.90
